Ana Sayfa
METAR-TAF:

METAR-TAF

Havaalanları :

Cebelitarık Havalimanı

Cebelitarık, Cebelitarık

Enlem: 36-09N, Boylam: 005-21W, yükseklik: 5 m

Güncel hava durumu gözlemi

Rapor saat 05:50 UTC de 1 saat ve 0 dakika önce yapıldı.
Rüzgar doğudan 10 kt
Sıcaklık 15°C
Nem 77%
Basınç 1029 hPa
Görüş mesafesi 10 km veya daha fazla
2100 ft yükseklikte çok bulutlu

METAR: LXGB 240550Z 08010KT 9999 OVC021 15/11 Q1029 RMK WHT

Saat: 07:50 (06:50 UTC)

Tahmin

Rapor saat 05:14 UTC de 1 saat ve 36 dakika önce yapıldı.
Ayın 24'si saat 06 UTC'den ayın 24'si saat 15 UTC'ye kadar geçerli Tahmin
Rüzgar doğudan 8 kt
Görüş mesafesi 10 km veya daha fazla
1200 ft yükseklikte az bulutlu
1500 ft yükseklikte parçalı bulutlu
Dönüşüyor
ayın 24'si saat 08 UTC'den ayın 24'si saat 11 UTC'ye kadar
1500 ft yükseklikte az bulutlu

TAF: LXGB 240514Z 2406/2415 10008KT 9999 FEW012 SCT015 BECMG 2408/2411 FEW015

4.000'den fazla havaalanı için hava durumu gözlemleri ve tahminleri (METAR ve TAF raporları).

Kullanılabilir istasyonlar harita üzerinde sarı ve kırmızı noktalarla gösterilir.

İstasyonun adını görmek için fareyi noktanın üzerinde gezdirin.

Sonrasında hava gözlem ve tahminlerini görmek için tıklayın.

Haritayı değiştirmek için: yaklaştırmak için siyah artı işaretli yeşil düğmeye ve uzaklaştırmak için de eksi işaretli düğmeye hızla tıklayın; bitişik haritalar için yeşil okları kullanın.


METAR-TAF: